createdAt,value
2018-09-04T00:01:17.907Z,55.93
2018-09-04T00:03:45.259Z,50.37
2018-09-04T00:06:13.029Z,50.63
2018-09-04T00:08:40.483Z,49.63
2018-09-04T00:11:08.126Z,48.73
2018-09-04T00:13:35.819Z,55.00
2018-09-04T00:16:10.021Z,50.90
2018-09-04T00:18:37.989Z,57.33
2018-09-04T00:21:05.477Z,58.73
2018-09-04T00:23:32.642Z,52.60
2018-09-04T00:25:59.886Z,58.90
2018-09-04T00:28:27.097Z,60.40
2018-09-04T00:30:54.350Z,57.70
2018-09-04T00:33:21.810Z,60.60
2018-09-04T00:35:49.016Z,54.13
2018-09-04T00:38:16.426Z,59.27
2018-09-04T00:40:43.931Z,63.40
2018-09-04T00:43:11.153Z,58.43
2018-09-04T00:45:38.384Z,56.33
2018-09-04T00:48:05.650Z,64.23
2018-09-04T00:50:32.866Z,55.83
2018-09-04T00:53:00.105Z,57.03
2018-09-04T00:55:27.343Z,61.53
2018-09-04T00:57:54.546Z,63.87
2018-09-04T01:00:24.162Z,59.90
2018-09-04T01:02:51.850Z,58.03
2018-09-04T01:05:19.074Z,62.63
2018-09-04T01:07:46.656Z,58.80
2018-09-04T01:10:14.284Z,65.60
2018-09-04T01:12:41.498Z,58.07
2018-09-04T01:15:08.732Z,56.43
2018-09-04T01:17:35.957Z,58.30
2018-09-04T01:20:03.203Z,57.70
2018-09-04T01:22:30.405Z,60.90
2018-09-04T01:24:57.603Z,60.70
2018-09-04T01:27:24.851Z,62.90
2018-09-04T01:29:52.131Z,57.23
2018-09-04T01:32:19.622Z,63.13
2018-09-04T01:34:46.841Z,67.10
2018-09-04T01:37:14.037Z,67.43
2018-09-04T01:39:41.279Z,60.30
2018-09-04T01:42:08.496Z,67.00
2018-09-04T01:44:35.722Z,66.20
2018-09-04T01:47:03.143Z,64.30
2018-09-04T01:49:30.329Z,66.90
2018-09-04T01:51:57.592Z,72.20
2018-09-04T01:54:24.805Z,64.40
2018-09-04T01:56:52.006Z,61.77
2018-09-04T01:59:19.175Z,64.23
2018-09-04T02:01:46.649Z,57.63
2018-09-04T02:04:13.830Z,60.80
2018-09-04T02:06:41.037Z,56.63
2018-09-04T02:09:08.696Z,60.50
2018-09-04T02:11:35.975Z,54.00
2018-09-04T02:14:03.474Z,58.30
2018-09-04T02:16:30.712Z,59.60
2018-09-04T02:18:57.893Z,73.50
2018-09-04T02:21:25.153Z,64.20
2018-09-04T02:23:52.390Z,65.90
2018-09-04T02:26:19.615Z,61.00
2018-09-04T02:28:46.987Z,63.80
2018-09-04T02:31:14.181Z,63.10
2018-09-04T02:33:41.620Z,60.13
2018-09-04T02:36:09.182Z,61.30
2018-09-04T02:38:36.386Z,65.70
2018-09-04T02:41:03.862Z,75.47
2018-09-04T02:43:31.274Z,64.90
2018-09-04T02:45:58.574Z,64.10
2018-09-04T02:48:25.929Z,66.83
2018-09-04T02:50:53.144Z,66.73
2018-09-04T02:53:20.450Z,68.60
2018-09-04T02:55:47.666Z,70.60
2018-09-04T02:58:14.913Z,72.10
2018-09-04T03:00:42.165Z,73.13
2018-09-04T03:03:09.406Z,68.33
2018-09-04T03:05:36.623Z,72.30
2018-09-04T03:08:03.823Z,71.20
2018-09-04T03:10:31.041Z,78.50
2018-09-04T03:12:58.239Z,73.27
2018-09-04T03:15:25.500Z,67.50
2018-09-04T03:17:52.780Z,69.73
2018-09-04T03:20:20.011Z,67.20
2018-09-04T03:22:47.282Z,64.20
2018-09-04T03:25:14.646Z,75.43
2018-09-04T03:27:41.856Z,66.00
2018-09-04T03:30:09.299Z,72.77
2018-09-04T03:32:36.505Z,61.33
2018-09-04T03:35:03.861Z,68.63
2018-09-04T03:37:31.056Z,67.60
2018-09-04T03:39:58.238Z,67.13
2018-09-04T03:42:25.551Z,64.67
2018-09-04T03:44:52.779Z,68.47
2018-09-04T03:47:19.986Z,62.60
2018-09-04T03:49:47.182Z,67.87
2018-09-04T03:52:14.582Z,63.90
2018-09-04T03:54:41.783Z,70.13
2018-09-04T03:57:09.049Z,71.33
2018-09-04T03:59:36.228Z,72.20
2018-09-04T04:02:03.478Z,69.23
2018-09-04T04:04:31.783Z,71.53
2018-09-04T04:06:59.165Z,70.90
2018-09-04T04:09:26.338Z,70.57
2018-09-04T04:11:53.591Z,67.70
2018-09-04T04:14:20.756Z,74.27
2018-09-04T04:16:47.946Z,72.67
2018-09-04T04:19:15.374Z,72.23
2018-09-04T04:21:42.574Z,72.57
2018-09-04T04:24:09.989Z,69.10
2018-09-04T04:26:37.413Z,75.40
2018-09-04T04:29:04.726Z,62.13
2018-09-04T04:31:32.020Z,59.80
2018-09-04T04:33:59.326Z,65.13
2018-09-04T04:36:26.533Z,67.47
2018-09-04T04:38:53.857Z,62.33
2018-09-04T04:41:21.131Z,60.77
2018-09-04T04:43:48.588Z,67.73
2018-09-04T04:46:16.329Z,67.37
2018-09-04T04:48:43.532Z,65.00
2018-09-04T04:51:10.828Z,58.00
2018-09-04T04:53:38.115Z,58.43
2018-09-04T04:56:05.556Z,60.73
2018-09-04T04:58:32.852Z,57.57
2018-09-04T05:01:00.075Z,60.23
2018-09-04T05:03:27.470Z,62.40
2018-09-04T05:05:54.956Z,60.33
2018-09-04T05:08:22.201Z,67.63
2018-09-04T05:10:49.461Z,62.50
2018-09-04T05:13:16.702Z,67.50
2018-09-04T05:15:44.046Z,62.10
2018-09-04T05:18:11.260Z,61.63
2018-09-04T05:20:38.514Z,58.87
2018-09-04T05:23:05.760Z,55.50
2018-09-04T05:25:32.961Z,52.90
2018-09-04T05:28:00.211Z,59.73
2018-09-04T05:30:27.424Z,61.17
2018-09-04T05:33:00.015Z,54.77
2018-09-04T05:35:29.424Z,56.80
2018-09-04T05:37:56.793Z,59.83
2018-09-04T05:40:24.084Z,57.27
2018-09-04T05:42:54.760Z,61.30
2018-09-04T05:45:23.347Z,59.50
2018-09-04T05:47:55.097Z,55.70
2018-09-04T05:50:22.331Z,57.07
2018-09-04T05:52:49.846Z,64.67
2018-09-04T05:55:17.178Z,57.13
2018-09-04T05:57:44.499Z,54.17
2018-09-04T06:00:16.353Z,56.50
2018-09-04T06:02:43.709Z,54.40
2018-09-04T06:05:10.961Z,54.40
2018-09-04T06:07:38.309Z,58.50
2018-09-04T06:10:05.618Z,52.43
2018-09-04T06:12:33.021Z,52.03
2018-09-04T06:15:00.288Z,53.53
2018-09-04T06:17:27.527Z,58.50
2018-09-04T06:19:54.952Z,55.60
2018-09-04T06:22:22.411Z,51.57
2018-09-04T06:24:49.843Z,55.07
2018-09-04T06:27:17.162Z,50.80
2018-09-04T06:29:44.474Z,52.77
2018-09-04T06:32:12.259Z,47.63
2018-09-04T06:34:39.538Z,50.10
2018-09-04T06:37:06.876Z,43.40
2018-09-04T06:39:34.888Z,42.80
2018-09-04T06:42:02.708Z,42.23
2018-09-04T06:44:30.259Z,39.60
2018-09-04T06:46:57.872Z,42.03
2018-09-04T06:49:25.194Z,42.90
2018-09-04T06:51:52.442Z,42.67
2018-09-04T06:54:19.674Z,44.50
2018-09-04T06:56:46.958Z,42.80
2018-09-04T06:59:14.190Z,48.30
2018-09-04T07:01:41.527Z,54.30
2018-09-04T07:04:08.821Z,51.43
2018-09-04T07:06:36.027Z,51.00
2018-09-04T07:09:04.057Z,46.33
2018-09-04T07:11:31.324Z,52.83
2018-09-04T07:13:58.719Z,52.70
2018-09-04T07:16:25.988Z,49.63
2018-09-04T07:18:53.292Z,55.13
2018-09-04T07:21:20.622Z,57.17
2018-09-04T07:23:48.699Z,53.93
2018-09-04T07:26:15.979Z,45.83
2018-09-04T07:28:43.390Z,65.03
2018-09-04T07:31:10.656Z,50.97
2018-09-04T07:33:38.121Z,51.90
2018-09-04T07:36:05.684Z,42.00
2018-09-04T07:38:32.939Z,41.90
2018-09-04T07:41:00.236Z,39.47
2018-09-04T07:43:27.469Z,44.40
2018-09-04T07:45:55.058Z,39.40
2018-09-04T07:48:22.309Z,41.03
2018-09-04T07:50:50.558Z,36.97
2018-09-04T07:53:18.105Z,34.27
2018-09-04T07:55:46.776Z,34.97
2018-09-04T07:58:14.171Z,33.27
2018-09-04T08:00:41.655Z,31.10
2018-09-04T08:03:08.927Z,33.17
2018-09-04T08:05:36.149Z,31.33
2018-09-04T08:08:03.584Z,31.57
2018-09-04T08:10:34.241Z,30.13
2018-09-04T08:13:02.350Z,29.03
2018-09-04T08:15:29.873Z,27.20
2018-09-04T08:17:57.113Z,30.57
2018-09-04T08:20:25.129Z,26.73
2018-09-04T08:22:54.038Z,30.63
2018-09-04T08:25:21.344Z,32.10
2018-09-04T08:27:48.649Z,28.33
2018-09-04T08:30:16.028Z,28.53
2018-09-04T08:32:43.350Z,26.87
2018-09-04T08:35:10.517Z,26.60
2018-09-04T08:37:37.941Z,26.00
2018-09-04T08:40:05.307Z,25.20
2018-09-04T08:42:32.460Z,24.10
2018-09-04T08:44:59.873Z,19.40
2018-09-04T08:47:27.210Z,16.93
2018-09-04T08:49:55.280Z,17.50
2018-09-04T08:52:22.535Z,18.97
2018-09-04T08:54:49.834Z,20.27
2018-09-04T08:57:17.579Z,19.07
2018-09-04T08:59:45.183Z,17.10
2018-09-04T09:02:12.548Z,20.97
2018-09-04T09:04:39.821Z,17.70
2018-09-04T09:07:07.143Z,16.50
2018-09-04T09:09:34.574Z,15.67
2018-09-04T09:12:01.818Z,16.30
2018-09-04T09:14:29.269Z,17.50
2018-09-04T09:16:56.978Z,15.23
2018-09-04T09:19:24.195Z,16.47
2018-09-04T09:21:51.438Z,14.83
2018-09-04T09:24:19.887Z,16.37
2018-09-04T09:26:47.269Z,17.47
2018-09-04T09:29:14.818Z,17.90
2018-09-04T09:31:42.160Z,16.47
2018-09-04T09:34:09.375Z,34.50
2018-09-04T09:36:36.695Z,27.03
2018-09-04T09:39:04.752Z,22.20
2018-09-04T09:41:32.021Z,29.27
2018-09-04T09:43:59.447Z,19.90
2018-09-04T09:46:26.701Z,17.93
2018-09-04T09:48:53.933Z,17.90
2018-09-04T09:51:21.242Z,20.47
2018-09-04T09:53:48.611Z,18.70
2018-09-04T09:56:16.131Z,17.37
2018-09-04T09:58:43.370Z,17.50
2018-09-04T10:01:16.069Z,22.33
2018-09-04T10:03:48.595Z,19.10
2018-09-04T10:06:16.514Z,17.83
2018-09-04T10:08:43.811Z,17.70
2018-09-04T10:11:11.149Z,17.73
2018-09-04T10:13:38.436Z,17.80
2018-09-04T10:16:06.402Z,15.90
2018-09-04T10:18:33.749Z,17.37
2018-09-04T10:21:01.180Z,17.30
2018-09-04T10:23:28.719Z,17.77
2018-09-04T10:25:56.019Z,17.87
2018-09-04T10:28:23.281Z,15.73
2018-09-04T10:30:50.559Z,18.13
2018-09-04T10:33:17.858Z,18.77
2018-09-04T10:35:45.168Z,17.63
2018-09-04T10:38:12.392Z,20.07
2018-09-04T10:40:42.243Z,22.83
2018-09-04T10:43:09.427Z,18.50
2018-09-04T10:46:11.710Z,17.87
2018-09-04T10:48:39.219Z,30.00
2018-09-04T10:51:06.709Z,31.33
2018-09-04T10:53:34.278Z,35.37
2018-09-04T10:56:01.706Z,38.23
2018-09-04T10:58:29.102Z,26.07
2018-09-04T11:03:40.707Z,35.70
2018-09-04T11:06:08.231Z,33.80
2018-09-04T11:08:35.490Z,56.40
2018-09-04T11:11:03.091Z,36.27
2018-09-04T11:13:30.623Z,26.77
2018-09-04T11:15:57.882Z,21.17
2018-09-04T11:18:25.189Z,19.90
2018-09-04T11:20:52.824Z,18.37
2018-09-04T11:23:20.006Z,17.20
2018-09-04T11:25:47.328Z,15.67
2018-09-04T11:28:15.180Z,16.80
2018-09-04T11:30:42.638Z,17.77
2018-09-04T11:33:10.031Z,17.63
2018-09-04T11:35:37.362Z,19.23
2018-09-04T11:38:04.830Z,16.43
2018-09-04T11:40:33.692Z,16.83
2018-09-04T11:43:01.790Z,17.10
2018-09-04T11:45:29.572Z,17.80
2018-09-04T11:47:58.738Z,15.47
2018-09-04T11:50:26.003Z,15.43
2018-09-04T11:52:53.258Z,16.90
2018-09-04T11:55:20.476Z,16.30
2018-09-04T11:57:47.817Z,15.57
2018-09-04T12:00:20.193Z,13.63
2018-09-04T12:02:47.516Z,15.70
2018-09-04T12:05:14.886Z,24.67
2018-09-04T12:07:42.095Z,16.17
2018-09-04T12:10:09.706Z,21.43
2018-09-04T12:12:37.384Z,30.30
2018-09-04T12:15:04.528Z,28.00
2018-09-04T12:17:31.848Z,16.77
2018-09-04T12:20:00.283Z,18.40
2018-09-04T12:22:27.494Z,19.73
2018-09-04T12:24:54.793Z,16.30
2018-09-04T12:27:22.326Z,16.30
2018-09-04T12:29:49.554Z,17.10
2018-09-04T12:32:16.814Z,16.37
2018-09-04T13:32:29.531Z,40.87
2018-09-04T13:34:57.242Z,19.53
2018-09-04T13:37:25.136Z,25.47
2018-09-04T13:39:57.832Z,27.63
2018-09-04T13:42:26.764Z,16.13
2018-09-04T13:44:55.759Z,17.23
2018-09-04T13:47:25.923Z,18.00
2018-09-04T13:49:54.074Z,17.53
2018-09-04T13:52:21.600Z,18.47
2018-09-04T13:54:49.299Z,17.40
2018-09-04T13:57:17.291Z,17.13
2018-09-04T13:59:45.744Z,17.97
2018-09-04T14:02:13.398Z,15.97
2018-09-04T14:04:41.042Z,17.40
2018-09-04T14:07:08.865Z,14.73
2018-09-04T14:09:37.396Z,14.80
2018-09-04T14:12:05.147Z,16.30
2018-09-04T14:14:34.852Z,14.90
2018-09-04T14:17:04.709Z,15.60
2018-09-04T14:19:32.410Z,15.33
2018-09-04T14:22:01.714Z,14.30
2018-09-04T14:24:29.253Z,15.23
2018-09-04T14:26:57.248Z,15.20
2018-09-04T14:29:54.319Z,17.63
2018-09-04T14:31:53.208Z,14.57
2018-09-04T14:34:21.896Z,15.10
2018-09-04T14:36:49.636Z,15.23
2018-09-04T14:39:17.268Z,15.70
2018-09-04T14:41:44.606Z,21.10
2018-09-04T14:44:12.044Z,19.97
2018-09-04T14:46:40.061Z,16.57
2018-09-04T14:49:07.810Z,13.57
2018-09-04T14:51:36.873Z,16.53
2018-09-04T14:54:04.829Z,14.70
2018-09-04T14:56:32.935Z,14.83
2018-09-04T14:59:00.389Z,21.67
2018-09-04T15:01:27.989Z,14.67
2018-09-04T15:03:57.047Z,14.43
2018-09-04T15:06:24.459Z,15.17
2018-09-04T15:08:52.004Z,14.30
2018-09-04T15:11:20.098Z,13.70
2018-09-04T15:13:48.107Z,14.10
2018-09-04T15:16:16.374Z,14.87
2018-09-04T15:18:44.378Z,14.90
2018-09-04T15:21:12.891Z,14.77
2018-09-04T15:23:40.523Z,13.37
2018-09-04T15:26:08.469Z,12.70
2018-09-04T15:28:35.971Z,14.30
2018-09-04T15:31:03.493Z,15.33
2018-09-04T15:33:31.031Z,14.13
2018-09-04T15:35:58.589Z,15.27
2018-09-04T15:38:26.776Z,18.93
2018-09-04T15:40:54.330Z,18.30
2018-09-04T15:43:22.389Z,20.13
2018-09-04T15:45:50.719Z,16.60
2018-09-04T15:48:18.540Z,18.63
2018-09-04T15:50:46.075Z,13.17
2018-09-04T15:53:13.690Z,13.30
2018-09-04T15:55:41.144Z,15.07
2018-09-04T15:58:08.706Z,14.03
2018-09-04T16:00:36.222Z,13.63
2018-09-04T16:03:05.438Z,13.33
2018-09-04T16:05:33.638Z,13.53
2018-09-04T16:08:01.401Z,14.23
2018-09-04T16:10:30.625Z,13.57
2018-09-04T16:13:00.733Z,13.47
2018-09-04T16:15:28.920Z,12.80
2018-09-04T16:17:56.336Z,13.80
2018-09-04T16:20:24.257Z,14.40
2018-09-04T16:22:51.996Z,13.10
2018-09-04T16:28:08.233Z,16.00
2018-09-04T16:30:38.284Z,13.07
2018-09-04T16:33:06.518Z,12.20
2018-09-04T16:35:33.874Z,13.93
2018-09-04T16:38:01.922Z,12.13
2018-09-04T16:40:29.711Z,12.87
2018-09-04T16:42:57.218Z,12.63
2018-09-04T16:45:25.017Z,12.07
2018-09-04T16:47:52.888Z,12.03
2018-09-04T16:50:20.473Z,13.20
2018-09-04T16:52:48.238Z,11.87
2018-09-04T16:55:16.287Z,12.30
2018-09-04T16:57:43.834Z,11.87
2018-09-04T17:00:11.655Z,8.80
2018-09-04T17:02:39.142Z,11.10
2018-09-04T17:05:06.662Z,8.77
2018-09-04T17:07:34.147Z,8.07
2018-09-04T17:10:01.601Z,8.43
2018-09-04T17:12:29.452Z,7.93
2018-09-04T17:14:57.141Z,8.10
2018-09-04T17:17:24.421Z,7.60
2018-09-04T17:19:51.929Z,6.93
2018-09-04T17:22:19.414Z,7.37
2018-09-04T17:24:46.772Z,7.70
2018-09-04T17:27:14.260Z,7.30
2018-09-04T17:29:41.936Z,7.50
2018-09-04T17:32:09.468Z,6.90
2018-09-04T17:34:36.728Z,7.60
2018-09-04T17:37:04.319Z,7.70
2018-09-04T17:39:31.987Z,7.40
2018-09-04T17:41:59.509Z,7.63
2018-09-04T17:44:26.840Z,11.07
2018-09-04T17:46:54.749Z,7.17
2018-09-04T17:49:22.409Z,7.63
2018-09-04T17:51:50.033Z,7.57
2018-09-04T17:54:17.613Z,8.07
2018-09-04T17:56:45.160Z,6.83
2018-09-04T17:59:12.706Z,7.67
2018-09-04T18:01:40.021Z,8.80
2018-09-04T18:04:07.721Z,8.03
2018-09-04T18:06:36.277Z,7.70
2018-09-04T18:09:04.587Z,8.30
2018-09-04T18:11:32.335Z,7.87
2018-09-04T18:13:59.831Z,7.67
2018-09-04T18:16:27.673Z,7.20
2018-09-04T18:18:55.228Z,7.77
2018-09-04T18:21:23.982Z,7.10
2018-09-04T18:23:51.624Z,7.17
2018-09-04T18:26:18.903Z,7.97
2018-09-04T18:28:46.418Z,7.60
2018-09-04T18:31:14.250Z,7.13
2018-09-04T18:33:47.784Z,7.90
2018-09-04T18:36:15.742Z,8.57
2018-09-04T18:38:43.602Z,7.97
2018-09-04T18:41:21.076Z,8.00
2018-09-04T18:43:53.126Z,9.00
2018-09-04T18:46:21.363Z,8.90
2018-09-04T18:48:56.786Z,8.30
2018-09-04T18:54:12.093Z,9.37
2018-09-04T18:56:51.812Z,8.93
2018-09-04T18:59:23.112Z,8.20
2018-09-04T19:01:50.893Z,8.03
2018-09-04T19:04:18.321Z,8.40
2018-09-04T19:06:45.942Z,8.47
2018-09-04T19:09:13.379Z,8.90
2018-09-04T19:11:40.808Z,8.70
2018-09-04T19:14:09.246Z,9.23
2018-09-04T19:16:36.598Z,9.43
2018-09-04T19:19:04.380Z,9.50
2018-09-04T19:21:32.251Z,9.13
2018-09-04T19:23:59.733Z,8.80
2018-09-04T19:26:27.091Z,10.07
2018-09-04T19:28:54.410Z,9.00
2018-09-04T19:31:22.041Z,10.27
2018-09-04T19:33:50.206Z,9.70
2018-09-04T19:36:18.472Z,8.50
2018-09-04T19:38:46.370Z,9.33
2018-09-04T19:41:14.053Z,8.87
2018-09-04T19:43:41.517Z,8.67
2018-09-04T19:46:08.886Z,9.30
2018-09-04T19:48:36.704Z,8.87
2018-09-04T19:51:04.854Z,10.27
2018-09-04T19:53:33.075Z,9.43
2018-09-04T19:56:03.132Z,10.63
2018-09-04T19:58:30.627Z,10.00
2018-09-04T20:00:58.446Z,10.43
2018-09-04T20:03:26.816Z,10.23
2018-09-04T20:05:55.066Z,14.30
2018-09-04T20:08:22.799Z,12.17
2018-09-04T20:10:50.250Z,11.03
2018-09-04T20:13:17.690Z,10.50
2018-09-04T20:15:45.356Z,10.57
2018-09-04T20:18:17.033Z,10.03
2018-09-04T20:20:44.497Z,11.73
2018-09-04T20:23:12.130Z,11.37
2018-09-04T20:25:41.043Z,11.17
2018-09-04T20:28:08.685Z,12.03
2018-09-04T20:30:36.065Z,11.37
2018-09-04T20:33:03.495Z,9.80
2018-09-04T20:35:31.188Z,9.67
2018-09-04T20:37:59.315Z,15.93
2018-09-04T20:40:30.437Z,9.77
2018-09-04T20:43:00.474Z,9.93
2018-09-04T20:45:29.063Z,11.17
2018-09-04T20:47:59.755Z,10.63
2018-09-04T20:50:27.524Z,10.10
2018-09-04T20:52:55.342Z,10.67
2018-09-04T20:55:22.730Z,9.57
2018-09-04T20:57:56.029Z,11.20
2018-09-04T21:00:29.569Z,11.67
2018-09-04T21:03:02.933Z,10.97
2018-09-04T21:05:36.021Z,12.00
2018-09-04T21:08:17.469Z,11.27
2018-09-04T21:10:45.575Z,11.30
2018-09-04T21:13:13.775Z,13.20
2018-09-04T21:15:41.290Z,12.67
2018-09-04T21:18:09.082Z,12.10
2018-09-04T21:20:38.203Z,11.90
2018-09-04T21:23:06.144Z,11.87
2018-09-04T21:26:37.446Z,13.50
2018-09-04T21:29:05.152Z,12.03
2018-09-04T21:31:33.405Z,14.00
2018-09-04T21:34:01.178Z,14.47
2018-09-04T21:36:28.970Z,12.83
2018-09-04T21:38:57.193Z,14.13
2018-09-04T21:41:24.973Z,13.50
2018-09-04T21:43:52.969Z,13.30
2018-09-04T21:46:20.668Z,14.30
2018-09-04T21:48:48.601Z,15.27
2018-09-04T21:51:16.121Z,22.27
2018-09-04T21:53:44.035Z,13.80
2018-09-04T21:56:12.478Z,14.10
2018-09-04T21:58:40.495Z,14.50
2018-09-04T22:01:08.111Z,13.97
2018-09-04T22:03:36.080Z,14.83
2018-09-04T22:06:03.901Z,15.43
2018-09-04T22:08:32.776Z,15.07
2018-09-04T22:11:00.772Z,14.83
2018-09-04T22:13:28.479Z,16.80
2018-09-04T22:15:58.137Z,14.60
2018-09-04T22:18:25.608Z,14.40
2018-09-04T22:20:53.352Z,14.37
2018-09-04T22:23:21.308Z,14.37
2018-09-04T22:25:49.500Z,14.17
2018-09-04T22:28:17.130Z,12.77
2018-09-04T22:30:46.101Z,14.13
2018-09-04T22:33:14.190Z,14.33
2018-09-04T22:35:42.309Z,13.10
2018-09-04T22:38:10.092Z,13.97
2018-09-04T22:40:37.738Z,13.73
2018-09-04T22:43:07.056Z,14.50
2018-09-04T22:45:34.851Z,14.20
2018-09-04T22:48:02.348Z,15.07
2018-09-04T22:50:35.466Z,15.93
2018-09-04T22:53:03.239Z,15.90
2018-09-04T22:55:30.871Z,14.77
2018-09-04T22:57:59.274Z,16.30
2018-09-04T23:00:26.827Z,16.40
2018-09-04T23:02:54.650Z,15.80
2018-09-04T23:05:22.673Z,15.97
2018-09-04T23:07:50.140Z,15.47
2018-09-04T23:10:18.108Z,15.70
2018-09-04T23:12:46.128Z,15.10
2018-09-04T23:15:13.628Z,16.10
2018-09-04T23:17:42.021Z,14.60
2018-09-04T23:20:09.717Z,16.33
2018-09-04T23:22:37.284Z,16.97
2018-09-04T23:25:05.153Z,15.13
2018-09-04T23:27:33.011Z,15.80
2018-09-04T23:30:01.096Z,15.40
2018-09-04T23:32:28.345Z,16.43
2018-09-04T23:34:55.761Z,17.43
2018-09-04T23:37:23.067Z,16.97
2018-09-04T23:39:50.294Z,18.00
2018-09-04T23:42:17.569Z,16.53
2018-09-04T23:44:44.794Z,17.80
2018-09-04T23:47:12.038Z,17.97
2018-09-04T23:49:39.333Z,17.57
2018-09-04T23:52:06.630Z,18.30
2018-09-04T23:54:34.076Z,17.83
2018-09-04T23:57:01.371Z,19.90
2018-09-04T23:59:28.694Z,18.27
